createdAt,value
2022-11-15T00:00:32.769Z,3.30
2022-11-15T00:01:32.778Z,3.20
2022-11-15T00:02:32.781Z,3.90
2022-11-15T00:03:32.927Z,3.60
2022-11-15T00:04:32.706Z,3.50
2022-11-15T00:05:32.699Z,3.70
2022-11-15T00:06:32.713Z,3.40
2022-11-15T00:07:54.477Z,3.20
2022-11-15T00:08:33.667Z,3.80
2022-11-15T00:09:32.671Z,3.30
2022-11-15T00:10:32.649Z,3.70
2022-11-15T00:11:32.670Z,3.60
2022-11-15T00:12:32.633Z,3.50
2022-11-15T00:13:33.051Z,3.20
2022-11-15T00:14:32.598Z,3.60
2022-11-15T00:15:32.587Z,3.80
2022-11-15T00:16:32.614Z,3.50
2022-11-15T00:17:32.591Z,3.70
2022-11-15T00:18:32.591Z,3.70
2022-11-15T00:19:32.566Z,3.70
2022-11-15T00:20:32.529Z,3.50
2022-11-15T00:21:32.569Z,3.50
2022-11-15T00:22:32.522Z,3.70
2022-11-15T00:23:32.910Z,3.80
2022-11-15T00:24:32.515Z,4.00
2022-11-15T00:25:32.483Z,3.50
2022-11-15T00:26:32.486Z,3.60
2022-11-15T00:27:32.456Z,3.80
2022-11-15T00:28:32.456Z,3.40
2022-11-15T00:29:32.465Z,3.60
2022-11-15T00:30:32.433Z,4.00
2022-11-15T00:31:32.438Z,3.70
2022-11-15T00:32:32.411Z,3.80
2022-11-15T00:33:32.872Z,3.50
2022-11-15T00:34:32.374Z,3.80
2022-11-15T00:35:32.385Z,3.70
2022-11-15T00:36:32.357Z,3.70
2022-11-15T00:37:32.340Z,3.50
2022-11-15T00:38:32.335Z,3.70
2022-11-15T00:39:32.381Z,3.50
2022-11-15T00:40:32.345Z,3.40
2022-11-15T00:41:32.295Z,3.60
2022-11-15T00:42:32.299Z,3.60
2022-11-15T00:43:32.751Z,3.60
2022-11-15T00:44:32.271Z,3.80
2022-11-15T00:45:32.284Z,3.70
2022-11-15T00:46:32.267Z,3.60
2022-11-15T00:47:32.239Z,3.00
2022-11-15T00:48:32.230Z,3.70
2022-11-15T00:49:32.252Z,3.50
2022-11-15T00:50:32.196Z,3.50
2022-11-15T00:51:32.196Z,3.60
2022-11-15T00:52:32.167Z,3.50
2022-11-15T00:53:32.500Z,3.20
2022-11-15T00:54:32.180Z,3.50
2022-11-15T00:55:32.141Z,3.40
2022-11-15T00:56:32.123Z,3.30
2022-11-15T00:57:32.147Z,3.80
2022-11-15T00:58:32.111Z,3.70
2022-11-15T00:59:32.107Z,3.40
2022-11-15T01:00:32.138Z,3.40
2022-11-15T01:01:32.068Z,3.50
2022-11-15T01:02:32.060Z,3.50
2022-11-15T01:03:32.415Z,3.50
2022-11-15T01:04:32.076Z,3.40
2022-11-15T01:05:32.042Z,3.20
2022-11-15T01:06:32.027Z,3.90
2022-11-15T01:07:32.246Z,3.20
2022-11-15T01:08:32.004Z,3.80
2022-11-15T01:09:32.014Z,3.70
2022-11-15T01:10:31.969Z,3.40
2022-11-15T01:11:31.999Z,3.60
2022-11-15T01:12:31.943Z,3.50
2022-11-15T01:13:32.320Z,3.90
2022-11-15T01:14:31.946Z,3.40
2022-11-15T01:15:31.912Z,3.60
2022-11-15T01:16:31.909Z,3.70
2022-11-15T01:17:31.944Z,3.20
2022-11-15T01:18:31.888Z,3.50
2022-11-15T01:19:31.924Z,3.50
2022-11-15T01:20:31.893Z,3.40
2022-11-15T01:21:31.846Z,3.40
2022-11-15T01:22:31.835Z,3.80
2022-11-15T01:23:32.115Z,3.90
2022-11-15T01:24:31.811Z,3.30
2022-11-15T01:25:31.843Z,3.40
2022-11-15T01:26:31.795Z,3.50
2022-11-15T01:27:31.770Z,3.40
2022-11-15T01:28:31.771Z,3.70
2022-11-15T01:29:31.753Z,3.10
2022-11-15T01:30:31.758Z,3.50
2022-11-15T01:31:31.733Z,3.50
2022-11-15T01:32:31.739Z,3.60
2022-11-15T01:33:32.104Z,3.60
2022-11-15T01:34:31.741Z,3.50
2022-11-15T01:35:31.688Z,3.40
2022-11-15T01:36:31.716Z,3.50
2022-11-15T01:37:31.694Z,3.50
2022-11-15T01:38:31.662Z,3.20
2022-11-15T01:39:31.661Z,3.30
2022-11-15T01:40:31.680Z,3.80
2022-11-15T01:41:31.614Z,3.20
2022-11-15T01:42:31.647Z,3.70
2022-11-15T01:43:32.077Z,3.30
2022-11-15T01:44:31.603Z,3.70
2022-11-15T01:45:31.583Z,3.40
2022-11-15T01:46:31.565Z,3.20
2022-11-15T01:47:31.595Z,3.40
2022-11-15T01:48:31.571Z,3.20
2022-11-15T01:49:31.532Z,3.40
2022-11-15T01:50:31.530Z,3.30
2022-11-15T01:51:31.527Z,3.50
2022-11-15T01:52:31.520Z,3.10
2022-11-15T01:53:31.906Z,3.60
2022-11-15T01:54:31.482Z,3.20
2022-11-15T01:55:31.458Z,2.90
2022-11-15T01:56:31.461Z,3.20
2022-11-15T01:57:31.433Z,3.60
2022-11-15T01:58:31.435Z,3.00
2022-11-15T01:59:31.439Z,3.60
2022-11-15T02:00:31.570Z,3.60
2022-11-15T02:01:31.400Z,3.40
2022-11-15T02:02:31.404Z,3.40
2022-11-15T02:03:31.746Z,3.50
2022-11-15T02:04:31.355Z,3.40
2022-11-15T02:05:52.349Z,3.50
2022-11-15T02:06:31.334Z,3.50
2022-11-15T02:07:31.387Z,3.10
2022-11-15T02:08:31.381Z,3.60
2022-11-15T02:09:31.332Z,3.50
2022-11-15T02:10:31.296Z,3.20
2022-11-15T02:11:31.269Z,3.50
2022-11-15T02:12:32.598Z,3.40
2022-11-15T02:13:31.617Z,3.20
2022-11-15T02:14:31.311Z,3.40
2022-11-15T02:15:31.231Z,3.20
2022-11-15T02:16:31.238Z,3.50
2022-11-15T02:17:31.209Z,3.40
2022-11-15T02:18:31.214Z,3.20
2022-11-15T02:19:31.214Z,3.10
2022-11-15T02:20:31.184Z,3.50
2022-11-15T02:23:51.370Z,3.00
2022-11-15T02:24:51.357Z,3.30
2022-11-15T02:25:51.327Z,3.20
2022-11-15T02:26:51.314Z,3.00
2022-11-15T02:27:51.323Z,3.40
2022-11-15T02:28:51.298Z,3.30
2022-11-15T02:29:51.318Z,3.30
2022-11-15T02:30:51.298Z,3.10
2022-11-15T02:31:51.275Z,3.40
2022-11-15T02:32:51.257Z,3.30
2022-11-15T02:33:51.230Z,3.30
2022-11-15T02:34:51.278Z,3.00
2022-11-15T02:35:51.238Z,3.20
2022-11-15T02:36:51.200Z,3.20
2022-11-15T02:37:51.230Z,3.00
2022-11-15T02:38:51.201Z,3.40
2022-11-15T02:39:51.179Z,2.90
2022-11-15T02:40:51.291Z,3.30
2022-11-15T02:41:51.147Z,3.20
2022-11-15T02:42:51.129Z,3.20
2022-11-15T02:43:51.131Z,3.00
2022-11-15T02:44:51.142Z,3.00
2022-11-15T02:45:51.178Z,3.10
2022-11-15T02:46:51.090Z,3.30
2022-11-15T02:47:51.616Z,3.50
2022-11-15T02:48:51.092Z,3.10
2022-11-15T02:49:51.080Z,3.20
2022-11-15T02:50:51.077Z,3.00
2022-11-15T02:51:51.045Z,3.40
2022-11-15T02:52:51.052Z,3.00
2022-11-15T02:53:51.016Z,3.30
2022-11-15T02:54:51.009Z,3.00
2022-11-15T02:55:51.004Z,3.60
2022-11-15T02:56:50.975Z,3.50
2022-11-15T02:57:50.984Z,3.20
2022-11-15T02:58:50.960Z,3.20
2022-11-15T02:59:50.945Z,3.20
2022-11-15T03:00:51.045Z,3.50
2022-11-15T03:01:50.936Z,3.40
2022-11-15T03:02:50.918Z,3.40
2022-11-15T03:03:58.958Z,3.20
2022-11-15T03:04:50.946Z,3.60
2022-11-15T03:05:50.887Z,3.10
2022-11-15T03:06:50.984Z,3.20
2022-11-15T03:07:50.901Z,3.40
2022-11-15T03:08:50.847Z,3.30
2022-11-15T03:09:50.878Z,3.10
2022-11-15T03:10:50.841Z,3.00
2022-11-15T03:11:50.849Z,3.10
2022-11-15T03:12:50.804Z,3.40
2022-11-15T03:13:50.788Z,3.40
2022-11-15T03:14:50.782Z,3.20
2022-11-15T03:15:50.762Z,3.20
2022-11-15T03:16:50.778Z,3.20
2022-11-15T03:17:50.783Z,3.20
2022-11-15T03:18:50.776Z,3.20
2022-11-15T03:19:50.717Z,3.20
2022-11-15T03:20:50.707Z,3.40
2022-11-15T03:21:50.715Z,3.10
2022-11-15T03:22:50.681Z,3.10
2022-11-15T03:23:50.691Z,3.10
2022-11-15T03:24:50.659Z,2.80
2022-11-15T03:25:50.656Z,3.40
2022-11-15T03:26:50.733Z,3.20
2022-11-15T03:27:50.649Z,3.10
2022-11-15T03:28:50.663Z,3.40
2022-11-15T03:29:50.636Z,3.40
2022-11-15T03:30:50.626Z,3.10
2022-11-15T03:31:51.512Z,3.00
2022-11-15T03:32:50.564Z,3.00
2022-11-15T03:33:50.560Z,3.10
2022-11-15T03:34:50.547Z,3.10
2022-11-15T03:35:50.545Z,3.10
2022-11-15T03:36:50.596Z,3.00
2022-11-15T03:37:50.587Z,3.50
2022-11-15T03:38:50.505Z,3.50
2022-11-15T03:39:50.485Z,3.20
2022-11-15T03:40:50.479Z,2.90
2022-11-15T03:41:50.468Z,3.20
2022-11-15T03:42:50.475Z,3.30
2022-11-15T03:43:50.461Z,2.90
2022-11-15T03:44:50.427Z,3.40
2022-11-15T03:45:50.423Z,3.00
2022-11-15T03:46:50.410Z,3.50
2022-11-15T03:47:50.604Z,3.30
2022-11-15T03:48:50.390Z,3.30
2022-11-15T03:49:50.372Z,3.30
2022-11-15T03:50:50.367Z,3.30
2022-11-15T03:51:50.355Z,3.20
2022-11-15T03:52:50.380Z,3.00
2022-11-15T03:53:50.327Z,3.00
2022-11-15T03:54:50.321Z,3.00
2022-11-15T03:55:50.335Z,3.30
2022-11-15T03:56:50.333Z,3.70
2022-11-15T03:57:50.324Z,3.40
2022-11-15T03:58:50.269Z,2.80
2022-11-15T03:59:50.356Z,3.40
2022-11-15T04:00:50.308Z,3.10
2022-11-15T04:01:51.130Z,2.80
2022-11-15T04:02:50.236Z,3.20
2022-11-15T04:03:50.406Z,3.10
2022-11-15T04:04:50.202Z,3.30
2022-11-15T04:05:50.315Z,3.20
2022-11-15T04:06:50.237Z,3.20
2022-11-15T04:07:50.197Z,3.30
2022-11-15T04:08:50.187Z,3.00
2022-11-15T04:09:50.236Z,3.30
2022-11-15T04:10:50.164Z,3.10
2022-11-15T04:11:50.249Z,3.30
2022-11-15T04:12:50.132Z,3.40
2022-11-15T04:13:50.292Z,3.00
2022-11-15T04:14:50.090Z,3.10
2022-11-15T04:15:50.337Z,3.10
2022-11-15T04:16:50.065Z,3.30
2022-11-15T04:17:50.094Z,3.10
2022-11-15T04:18:50.156Z,3.40
2022-11-15T04:19:50.082Z,3.40
2022-11-15T04:20:50.068Z,3.00
2022-11-15T04:21:50.047Z,3.20
2022-11-15T04:22:50.123Z,3.30
2022-11-15T04:23:50.015Z,3.30
2022-11-15T04:24:49.975Z,3.10
2022-11-15T04:25:49.993Z,3.30
2022-11-15T04:26:49.969Z,3.10
2022-11-15T04:27:49.982Z,3.20
2022-11-15T04:28:49.933Z,3.30
2022-11-15T04:29:49.929Z,3.30
2022-11-15T04:30:49.938Z,3.20
2022-11-15T04:31:49.940Z,3.30
2022-11-15T04:32:49.883Z,3.50
2022-11-15T04:33:50.633Z,3.30
2022-11-15T04:34:49.861Z,3.10
2022-11-15T04:35:49.859Z,3.10
2022-11-15T04:36:49.868Z,3.40
2022-11-15T04:37:49.840Z,3.30
2022-11-15T04:38:49.819Z,3.40
2022-11-15T04:39:49.808Z,3.10
2022-11-15T04:40:49.826Z,3.50
2022-11-15T04:41:49.808Z,3.60
2022-11-15T04:42:49.774Z,3.40
2022-11-15T04:43:49.787Z,3.50
2022-11-15T04:44:49.749Z,3.50
2022-11-15T04:45:49.766Z,3.30
2022-11-15T04:46:49.757Z,3.30
2022-11-15T04:47:49.760Z,3.00
2022-11-15T04:48:53.025Z,3.40
2022-11-15T04:49:50.715Z,3.60
2022-11-15T04:50:49.680Z,3.30
2022-11-15T04:51:49.693Z,3.10
2022-11-15T04:52:49.677Z,3.10
2022-11-15T04:53:49.650Z,3.30
2022-11-15T04:54:49.652Z,3.30
2022-11-15T04:55:49.696Z,3.60
2022-11-15T04:56:49.706Z,3.60
2022-11-15T04:57:49.605Z,3.70
2022-11-15T04:58:49.734Z,3.70
2022-11-15T04:59:49.581Z,3.30
2022-11-15T05:00:49.717Z,3.40
2022-11-15T05:01:49.556Z,3.60
2022-11-15T05:02:49.548Z,3.40
2022-11-15T05:03:49.564Z,3.70
2022-11-15T05:04:49.549Z,3.60
2022-11-15T05:05:49.518Z,3.50
2022-11-15T05:06:49.517Z,3.60
2022-11-15T05:07:49.487Z,3.90
2022-11-15T05:08:49.473Z,3.30
2022-11-15T05:09:49.484Z,3.80
2022-11-15T05:10:49.450Z,3.80
2022-11-15T05:11:49.443Z,3.70
2022-11-15T05:12:49.434Z,3.80
2022-11-15T05:13:49.423Z,3.90
2022-11-15T05:14:49.443Z,3.60
2022-11-15T05:15:49.410Z,3.60
2022-11-15T05:16:49.384Z,3.80
2022-11-15T05:17:49.399Z,3.90
2022-11-15T05:18:49.359Z,3.50
2022-11-15T05:19:49.374Z,3.60
2022-11-15T05:20:49.345Z,3.50
2022-11-15T05:21:49.360Z,3.50
2022-11-15T05:22:49.324Z,3.70
2022-11-15T05:23:49.308Z,3.70
2022-11-15T05:24:49.296Z,3.80
2022-11-15T05:25:49.335Z,4.00
2022-11-15T05:26:49.292Z,3.80
2022-11-15T05:27:49.295Z,3.90
2022-11-15T05:28:49.252Z,3.70
2022-11-15T05:29:49.248Z,3.90
2022-11-15T05:30:49.226Z,4.40
2022-11-15T05:31:49.221Z,3.70
2022-11-15T05:32:49.223Z,3.80
2022-11-15T05:33:49.196Z,4.20
2022-11-15T05:34:49.200Z,3.80
2022-11-15T05:35:49.188Z,3.60
2022-11-15T05:36:49.187Z,3.70
2022-11-15T05:37:49.153Z,4.00
2022-11-15T05:38:49.163Z,3.60
2022-11-15T05:39:49.133Z,3.70
2022-11-15T05:40:49.116Z,4.10
2022-11-15T05:41:49.168Z,4.10
2022-11-15T05:42:49.127Z,3.70
2022-11-15T05:43:49.086Z,4.00
2022-11-15T05:44:49.070Z,4.10
2022-11-15T05:45:49.059Z,4.00
2022-11-15T05:46:49.130Z,3.70
2022-11-15T05:47:49.048Z,4.20
2022-11-15T05:48:49.043Z,4.20
2022-11-15T05:49:49.039Z,3.90
2022-11-15T05:50:49.022Z,4.10
2022-11-15T05:51:49.245Z,3.70
2022-11-15T05:52:48.979Z,3.90
2022-11-15T05:53:48.969Z,3.90
2022-11-15T05:54:48.976Z,3.80
2022-11-15T05:55:48.945Z,4.10
2022-11-15T05:56:48.936Z,3.80
2022-11-15T05:57:48.929Z,3.80
2022-11-15T05:58:48.936Z,3.90
2022-11-15T05:59:48.909Z,3.60
2022-11-15T06:00:48.893Z,3.60
2022-11-15T06:01:48.918Z,3.90
2022-11-15T06:02:48.885Z,3.90
2022-11-15T06:03:48.889Z,3.90
2022-11-15T06:04:48.843Z,3.70
2022-11-15T06:05:48.832Z,4.40
2022-11-15T06:06:48.886Z,4.30
2022-11-15T06:07:48.839Z,4.10
2022-11-15T06:08:48.811Z,3.80
2022-11-15T06:09:48.822Z,4.10
2022-11-15T06:10:48.772Z,4.10
2022-11-15T06:11:48.775Z,4.30
2022-11-15T06:12:48.752Z,3.70
2022-11-15T06:13:48.743Z,4.60
2022-11-15T06:14:48.765Z,3.80
2022-11-15T06:15:48.729Z,3.90
2022-11-15T06:16:48.795Z,4.20
2022-11-15T06:17:48.700Z,4.00
2022-11-15T06:18:48.686Z,4.20
2022-11-15T06:19:48.688Z,4.20
2022-11-15T06:20:48.689Z,4.20
2022-11-15T06:21:48.656Z,4.20
2022-11-15T06:22:48.669Z,4.20
2022-11-15T06:23:48.731Z,4.40
2022-11-15T06:24:48.626Z,4.10
2022-11-15T06:25:48.646Z,4.40
2022-11-15T06:26:48.599Z,4.10
2022-11-15T06:27:48.591Z,3.60
2022-11-15T06:28:48.579Z,4.00
2022-11-15T06:29:48.565Z,4.30
2022-11-15T06:30:53.012Z,3.90
2022-11-15T06:31:48.565Z,3.90
2022-11-15T06:32:48.560Z,4.10
2022-11-15T06:33:48.534Z,4.20
2022-11-15T06:34:48.510Z,3.90
2022-11-15T06:35:48.523Z,4.00
2022-11-15T06:36:48.493Z,4.30
2022-11-15T06:37:48.497Z,4.10
2022-11-15T06:38:48.457Z,4.30
2022-11-15T06:39:48.544Z,4.40
2022-11-15T06:40:48.469Z,3.90
2022-11-15T06:41:48.461Z,3.90
2022-11-15T06:42:48.422Z,4.20
2022-11-15T06:43:48.437Z,4.50
2022-11-15T06:44:48.401Z,4.00
2022-11-15T06:45:48.385Z,4.20
2022-11-15T06:46:48.366Z,4.30
2022-11-15T06:47:48.383Z,4.60
2022-11-15T06:48:48.366Z,4.10
2022-11-15T06:49:48.369Z,3.90
2022-11-15T06:50:48.321Z,4.30
2022-11-15T06:51:48.319Z,4.00
2022-11-15T06:52:48.330Z,4.20
2022-11-15T06:53:48.316Z,4.20
2022-11-15T06:54:48.277Z,4.00
2022-11-15T06:55:53.424Z,3.80
2022-11-15T06:56:49.255Z,4.00
2022-11-15T06:57:48.260Z,4.40
2022-11-15T06:58:48.281Z,4.60
2022-11-15T06:59:48.229Z,3.90
2022-11-15T07:00:48.306Z,4.00
2022-11-15T07:01:48.320Z,4.10
2022-11-15T07:02:48.193Z,4.40
2022-11-15T07:03:48.205Z,4.30
2022-11-15T07:04:48.167Z,3.80
2022-11-15T07:05:48.194Z,3.80
2022-11-15T07:06:48.191Z,3.80
2022-11-15T07:07:48.163Z,3.70
2022-11-15T07:08:48.118Z,4.00
2022-11-15T07:09:48.140Z,4.00
2022-11-15T07:10:48.104Z,4.20
2022-11-15T07:11:48.122Z,4.30
2022-11-15T07:12:48.074Z,4.00
2022-11-15T07:13:48.069Z,4.10
2022-11-15T07:14:48.075Z,4.30
2022-11-15T07:15:48.062Z,4.70
2022-11-15T07:16:48.070Z,4.00
2022-11-15T07:17:48.027Z,4.40
2022-11-15T07:18:48.010Z,4.10
2022-11-15T07:19:47.993Z,3.90
2022-11-15T07:20:48.007Z,4.10
2022-11-15T07:21:47.980Z,4.10
2022-11-15T07:22:47.969Z,3.90
2022-11-15T07:23:47.955Z,4.20
2022-11-15T07:24:47.966Z,4.20
2022-11-15T07:25:47.931Z,4.40
2022-11-15T07:26:47.919Z,4.40
2022-11-15T07:27:47.927Z,3.90
2022-11-15T07:28:47.892Z,4.20
2022-11-15T07:29:47.921Z,3.90
2022-11-15T07:30:47.901Z,4.20
2022-11-15T07:31:47.872Z,4.30
2022-11-15T07:32:47.853Z,4.10
2022-11-15T07:33:47.841Z,4.20
2022-11-15T07:34:47.827Z,4.40
2022-11-15T07:35:47.952Z,4.20
2022-11-15T07:36:47.811Z,4.20
2022-11-15T07:37:47.821Z,4.20
2022-11-15T07:38:47.897Z,4.40
2022-11-15T07:39:47.784Z,4.10
2022-11-15T07:40:47.808Z,4.00
2022-11-15T07:41:47.753Z,4.00
2022-11-15T07:42:47.747Z,4.30
2022-11-15T07:43:47.746Z,4.00
2022-11-15T07:44:47.747Z,4.30
2022-11-15T07:45:47.740Z,4.00
2022-11-15T07:46:47.693Z,4.10
2022-11-15T07:47:47.677Z,4.10
2022-11-15T07:48:47.714Z,3.90
2022-11-15T07:49:47.658Z,4.10
2022-11-15T07:50:47.647Z,4.10
2022-11-15T07:51:47.652Z,3.70
2022-11-15T07:52:47.657Z,3.70
2022-11-15T07:53:47.617Z,3.80
2022-11-15T07:54:47.617Z,4.00
2022-11-15T07:55:47.601Z,4.50
2022-11-15T07:56:47.581Z,3.90
2022-11-15T07:57:47.568Z,4.00
2022-11-15T07:58:47.594Z,3.40
2022-11-15T07:59:47.602Z,4.30
2022-11-15T08:00:47.568Z,3.80
2022-11-15T08:01:47.674Z,4.00
2022-11-15T08:02:47.674Z,3.60
2022-11-15T08:03:47.502Z,3.60
2022-11-15T08:04:47.497Z,4.00
2022-11-15T08:05:47.496Z,3.70
2022-11-15T08:06:47.539Z,3.90
2022-11-15T08:07:47.458Z,3.60
2022-11-15T08:08:47.445Z,3.80
2022-11-15T08:09:47.461Z,3.60
2022-11-15T08:10:47.471Z,3.50
2022-11-15T08:11:47.411Z,4.10
2022-11-15T08:12:47.491Z,3.40
2022-11-15T08:13:47.395Z,3.70
2022-11-15T08:14:47.375Z,3.90
2022-11-15T08:15:47.450Z,3.90
2022-11-15T08:16:47.387Z,3.90
2022-11-15T08:17:47.341Z,3.90
2022-11-15T08:18:47.384Z,3.70
2022-11-15T08:19:47.324Z,3.80
2022-11-15T08:20:47.345Z,4.00
2022-11-15T08:21:47.296Z,3.90
2022-11-15T08:22:47.294Z,3.80
2022-11-15T08:23:47.290Z,3.80
2022-11-15T08:24:47.343Z,4.20
2022-11-15T08:25:47.252Z,3.70
2022-11-15T08:26:47.367Z,3.70
2022-11-15T08:27:47.225Z,4.00
2022-11-15T08:28:47.217Z,3.70
2022-11-15T08:29:47.233Z,3.60
2022-11-15T08:30:47.215Z,3.90
2022-11-15T08:31:47.287Z,4.00
2022-11-15T08:32:47.179Z,3.80
2022-11-15T08:33:47.189Z,4.00
2022-11-15T08:34:47.162Z,4.50
2022-11-15T08:35:47.162Z,3.80
2022-11-15T08:36:47.137Z,3.60
2022-11-15T08:37:47.111Z,3.60
2022-11-15T08:38:47.133Z,4.00
2022-11-15T08:39:47.096Z,4.40
2022-11-15T08:40:47.137Z,3.90
2022-11-15T08:41:47.119Z,3.50
2022-11-15T08:42:47.072Z,3.90
2022-11-15T08:43:47.075Z,4.00
2022-11-15T08:44:47.045Z,3.90
2022-11-15T08:45:47.046Z,3.80
2022-11-15T08:46:47.014Z,4.00
2022-11-15T08:47:52.731Z,3.90
2022-11-15T08:48:48.086Z,3.90
2022-11-15T08:49:46.981Z,3.80
2022-11-15T08:50:46.973Z,3.90
2022-11-15T08:51:46.964Z,3.70
2022-11-15T08:52:46.951Z,4.20
2022-11-15T08:53:46.956Z,3.60
2022-11-15T08:54:46.923Z,3.20
2022-11-15T08:55:46.904Z,3.50
2022-11-15T08:56:46.906Z,3.50
2022-11-15T08:57:46.896Z,3.20
2022-11-15T08:58:46.920Z,4.10
2022-11-15T08:59:46.895Z,3.60
2022-11-15T09:00:46.864Z,3.70
2022-11-15T09:01:46.855Z,3.40
2022-11-15T09:02:46.864Z,3.80
2022-11-15T09:03:46.883Z,3.40
2022-11-15T09:04:46.822Z,3.30
2022-11-15T09:05:46.797Z,3.40
2022-11-15T09:06:46.838Z,3.10
2022-11-15T09:07:46.798Z,3.50
2022-11-15T09:08:57.310Z,3.30
2022-11-15T09:09:47.761Z,3.50
2022-11-15T09:10:46.794Z,3.40
2022-11-15T09:11:47.702Z,3.50
2022-11-15T09:12:46.753Z,3.10
2022-11-15T09:13:46.766Z,3.80
2022-11-15T09:14:46.709Z,3.40
2022-11-15T09:15:46.689Z,3.60
2022-11-15T09:16:46.697Z,3.10
2022-11-15T09:17:46.672Z,3.90
2022-11-15T09:18:46.706Z,3.30
2022-11-15T09:19:46.676Z,3.10
2022-11-15T09:20:46.630Z,3.30
2022-11-15T09:21:46.631Z,3.40
2022-11-15T09:22:46.623Z,3.20
2022-11-15T09:23:46.874Z,3.20
2022-11-15T09:24:46.584Z,3.10
2022-11-15T09:25:46.586Z,3.20
2022-11-15T09:26:46.558Z,3.30
2022-11-15T09:27:46.582Z,3.20
2022-11-15T09:28:46.540Z,3.20
2022-11-15T09:29:46.524Z,3.10
2022-11-15T09:30:46.543Z,3.30
2022-11-15T09:31:46.508Z,3.30
2022-11-15T09:32:46.504Z,3.10
2022-11-15T09:33:46.510Z,2.90
2022-11-15T09:34:46.473Z,3.20
2022-11-15T09:35:46.476Z,3.40
2022-11-15T09:36:46.522Z,2.90
2022-11-15T09:37:46.477Z,3.00
2022-11-15T09:38:46.433Z,3.40
2022-11-15T09:39:46.407Z,3.00
2022-11-15T09:40:46.401Z,3.20
2022-11-15T09:41:46.394Z,3.40
2022-11-15T09:42:46.538Z,3.20
2022-11-15T09:43:46.511Z,3.50
2022-11-15T09:44:46.367Z,3.20
2022-11-15T09:45:46.377Z,2.90
2022-11-15T09:46:46.349Z,3.20
2022-11-15T09:47:46.333Z,3.40
2022-11-15T09:48:46.318Z,2.90
2022-11-15T09:49:46.325Z,3.60
2022-11-15T09:50:46.298Z,2.90
2022-11-15T09:51:46.291Z,3.50
2022-11-15T09:52:46.294Z,3.20
2022-11-15T09:54:55.861Z,3.10
2022-11-15T09:55:47.232Z,3.10
2022-11-15T09:56:46.245Z,3.20
2022-11-15T09:57:46.209Z,3.30
2022-11-15T09:58:46.228Z,3.40
2022-11-15T09:59:46.205Z,3.20
2022-11-15T10:00:48.018Z,3.20
2022-11-15T10:01:46.205Z,3.10
2022-11-15T10:02:46.161Z,3.20
2022-11-15T10:03:46.139Z,3.70
2022-11-15T10:04:46.170Z,2.90
2022-11-15T10:05:46.120Z,3.30
2022-11-15T10:06:46.169Z,3.10
2022-11-15T10:07:46.164Z,3.10
2022-11-15T10:08:46.090Z,2.90
2022-11-15T10:09:46.100Z,3.20
2022-11-15T10:10:46.065Z,3.00
2022-11-15T10:11:46.075Z,3.10
2022-11-15T10:12:46.045Z,3.10
2022-11-15T10:13:46.027Z,3.20
2022-11-15T10:14:50.294Z,3.20
2022-11-15T10:15:47.005Z,3.20
2022-11-15T10:16:46.005Z,3.00
2022-11-15T10:17:45.988Z,3.00
2022-11-15T10:18:45.974Z,3.30
2022-11-15T10:19:45.982Z,3.40
2022-11-15T10:20:45.946Z,3.00
2022-11-15T10:21:45.964Z,3.10
2022-11-15T10:22:45.927Z,3.40
2022-11-15T10:23:45.953Z,3.10
2022-11-15T10:24:45.928Z,2.90
2022-11-15T10:25:45.897Z,2.90
2022-11-15T10:26:45.881Z,3.10
2022-11-15T10:27:45.875Z,2.90
2022-11-15T10:28:45.947Z,3.20
2022-11-15T10:29:45.871Z,3.20
2022-11-15T10:30:45.846Z,3.20
2022-11-15T10:31:45.824Z,3.10
2022-11-15T10:32:45.819Z,3.50
2022-11-15T10:33:45.820Z,2.70
2022-11-15T10:34:45.795Z,2.90
2022-11-15T10:35:45.781Z,3.00
2022-11-15T10:36:50.152Z,3.20
2022-11-15T10:37:45.754Z,3.40
2022-11-15T10:38:45.777Z,2.80
2022-11-15T10:39:45.746Z,3.10
2022-11-15T10:40:45.726Z,3.30
2022-11-15T10:41:45.732Z,3.00
2022-11-15T10:42:45.709Z,3.00
2022-11-15T10:43:45.736Z,3.00
2022-11-15T10:44:45.794Z,2.90
2022-11-15T10:45:45.668Z,3.20
2022-11-15T10:46:47.548Z,2.80
2022-11-15T10:47:45.665Z,3.00
2022-11-15T10:48:45.675Z,2.80
2022-11-15T10:49:45.629Z,3.00
2022-11-15T10:50:45.605Z,2.80
2022-11-15T10:51:45.603Z,2.90
2022-11-15T10:52:45.634Z,2.90
2022-11-15T10:53:45.573Z,2.90
2022-11-15T10:54:45.643Z,3.20
2022-11-15T10:55:45.566Z,2.90
2022-11-15T10:56:45.537Z,2.80
2022-11-15T10:57:45.531Z,2.70
2022-11-15T10:58:45.559Z,3.00
2022-11-15T10:59:45.505Z,2.90
2022-11-15T11:00:45.503Z,2.50
2022-11-15T11:01:45.616Z,2.70
2022-11-15T11:02:45.488Z,2.80
2022-11-15T11:03:45.507Z,2.70
2022-11-15T11:04:45.467Z,2.40
2022-11-15T11:05:45.472Z,2.50
2022-11-15T11:06:45.510Z,2.80
2022-11-15T11:07:45.415Z,2.70
2022-11-15T11:08:45.406Z,2.70
2022-11-15T11:09:45.509Z,2.70
2022-11-15T11:10:51.766Z,2.70
2022-11-15T11:11:46.388Z,2.30
2022-11-15T11:12:45.374Z,2.70
2022-11-15T11:13:45.388Z,2.50
2022-11-15T11:14:45.449Z,2.50
2022-11-15T11:15:45.348Z,2.60
2022-11-15T11:16:45.359Z,2.40
2022-11-15T11:17:45.303Z,2.50
2022-11-15T11:18:45.291Z,2.40
2022-11-15T11:19:45.288Z,2.50
2022-11-15T11:20:45.292Z,2.30
2022-11-15T11:21:45.282Z,2.30
2022-11-15T11:22:45.251Z,2.60
2022-11-15T11:23:45.231Z,2.50
2022-11-15T11:24:45.232Z,2.30
2022-11-15T11:25:45.265Z,2.50
2022-11-15T11:26:45.237Z,2.70
2022-11-15T11:27:45.202Z,2.40
2022-11-15T11:28:45.175Z,2.50
2022-11-15T11:29:45.171Z,2.20
2022-11-15T11:30:45.208Z,2.50
2022-11-15T11:31:45.162Z,2.90
2022-11-15T11:32:45.137Z,2.80
2022-11-15T11:33:45.125Z,2.40
2022-11-15T11:34:45.110Z,2.30
2022-11-15T11:35:45.101Z,2.50
2022-11-15T11:36:45.124Z,2.40
2022-11-15T11:37:45.080Z,2.50
2022-11-15T11:38:45.074Z,2.70
2022-11-15T11:39:45.056Z,2.20
2022-11-15T11:40:45.039Z,2.60
2022-11-15T11:41:45.055Z,2.30
2022-11-15T11:42:45.019Z,2.40
2022-11-15T11:43:45.304Z,2.30
2022-11-15T11:44:45.016Z,2.60
2022-11-15T11:45:47.428Z,2.70
2022-11-15T11:46:44.973Z,3.50
2022-11-15T11:47:44.962Z,2.30
2022-11-15T11:48:44.954Z,2.40
2022-11-15T11:49:44.980Z,2.70
2022-11-15T11:50:44.927Z,2.50
2022-11-15T11:51:44.919Z,2.50
2022-11-15T11:52:44.905Z,2.40
2022-11-15T11:53:44.895Z,2.30
2022-11-15T11:54:44.906Z,2.20
2022-11-15T11:55:44.876Z,2.40
2022-11-15T11:56:44.858Z,2.60
2022-11-15T11:57:44.873Z,2.60
2022-11-15T11:58:44.900Z,2.50
2022-11-15T11:59:44.874Z,2.60
2022-11-15T12:00:44.840Z,2.70
2022-11-15T12:01:45.033Z,2.50
2022-11-15T12:02:44.982Z,2.90
2022-11-15T12:03:44.782Z,2.70
2022-11-15T12:04:44.777Z,2.70
2022-11-15T12:05:44.763Z,2.50
2022-11-15T12:06:44.785Z,2.70
2022-11-15T12:07:44.754Z,2.70
2022-11-15T12:08:44.775Z,2.40
2022-11-15T12:09:44.764Z,2.60
2022-11-15T12:10:44.704Z,2.40
2022-11-15T12:11:44.748Z,2.30
2022-11-15T12:12:44.725Z,2.70
2022-11-15T12:13:44.708Z,2.40
2022-11-15T12:14:44.670Z,2.50
2022-11-15T12:15:44.681Z,2.50
2022-11-15T12:16:44.636Z,2.20
2022-11-15T12:17:44.647Z,2.50
2022-11-15T12:18:44.647Z,2.10
2022-11-15T12:19:44.612Z,2.30
2022-11-15T12:20:44.593Z,2.60
2022-11-15T12:21:44.588Z,2.50
2022-11-15T12:22:44.589Z,2.40
2022-11-15T12:23:44.568Z,2.40
2022-11-15T12:24:44.597Z,2.70
2022-11-15T12:25:44.532Z,2.70
2022-11-15T12:26:44.647Z,2.60
2022-11-15T12:27:44.538Z,2.60
2022-11-15T12:29:04.536Z,2.70
2022-11-15T12:29:45.512Z,2.40
2022-11-15T12:30:44.501Z,2.20
2022-11-15T12:31:44.494Z,2.40
2022-11-15T12:32:44.463Z,2.30
2022-11-15T12:33:44.439Z,2.40
2022-11-15T12:34:44.435Z,2.20
2022-11-15T12:35:44.447Z,2.60
2022-11-15T12:36:44.435Z,2.30
2022-11-15T12:37:44.421Z,2.40
2022-11-15T12:38:44.390Z,2.40
2022-11-15T12:39:44.381Z,2.60
2022-11-15T12:40:44.362Z,2.50
2022-11-15T12:41:44.351Z,2.20
2022-11-15T12:42:44.359Z,2.40
2022-11-15T12:43:44.329Z,2.40
2022-11-15T12:44:44.364Z,3.70
2022-11-15T12:45:44.310Z,2.50
2022-11-15T12:46:44.308Z,2.30
2022-11-15T12:47:44.337Z,2.20
2022-11-15T12:48:44.293Z,2.20
2022-11-15T12:49:44.271Z,2.50
2022-11-15T12:50:44.257Z,2.30
2022-11-15T12:51:44.247Z,2.40
2022-11-15T12:52:44.255Z,2.40
2022-11-15T12:53:44.217Z,2.50
2022-11-15T12:54:44.223Z,2.80
2022-11-15T12:55:44.201Z,2.10
2022-11-15T12:56:44.211Z,2.10
2022-11-15T12:57:44.185Z,2.40
2022-11-15T12:58:44.152Z,2.10
2022-11-15T12:59:44.180Z,2.50
2022-11-15T13:00:44.133Z,2.20
2022-11-15T13:01:44.236Z,2.20
2022-11-15T13:02:44.136Z,2.30
2022-11-15T13:03:44.125Z,1.90
2022-11-15T13:04:44.090Z,2.20
2022-11-15T13:05:44.075Z,2.10
2022-11-15T13:06:44.067Z,1.80
2022-11-15T13:07:44.063Z,2.30
2022-11-15T13:08:44.066Z,2.00
2022-11-15T13:09:44.032Z,2.10
2022-11-15T13:10:44.071Z,2.20
2022-11-15T13:11:44.010Z,2.40
2022-11-15T13:12:44.029Z,2.40
2022-11-15T13:13:43.989Z,2.20
2022-11-15T13:14:43.985Z,2.30
2022-11-15T13:15:43.996Z,2.60
2022-11-15T13:16:43.953Z,2.20
2022-11-15T13:17:43.959Z,2.30
2022-11-15T13:18:43.927Z,2.50
2022-11-15T13:19:43.940Z,2.40
2022-11-15T13:20:43.941Z,2.20
2022-11-15T13:21:43.893Z,2.20